Time;durP1;ratioP1;P1;durP2;ratioP2;P2;SDS_P1;SDS_P2;PMS_P1;PMS_P2;Temp;Humidity;BMP_temperature;BMP_pressure;BME280_temperature;BME280_humidity;BME280_pressure;Samples;Min_cycle;Max_cycle;Signal;HPM_P1;HPM_P2
2024/01/08 00:00:01;;;;;;;36.97;16.45;;;;;;;-146.82;100.00;71671.09;5016050;28;20034;-78
2024/01/08 00:02:28;;;;;;;37.78;16.40;;;;;;;-146.82;100.00;71671.09;5014734;28;20033;-76
2024/01/08 00:04:55;;;;;;;30.40;16.27;;;;;;;-146.82;100.00;71671.09;4998910;28;20365;-77
2024/01/08 00:07:20;;;;;;;32.55;15.98;;;;;;;-146.82;100.00;71671.09;5014078;28;20376;-77
2024/01/08 00:09:46;;;;;;;30.63;14.85;;;;;;;-146.82;100.00;71671.09;5017391;28;20513;-77
2024/01/08 00:12:11;;;;;;;35.13;16.25;;;;;;;-146.82;100.00;71671.09;5020068;28;20080;-76
2024/01/08 00:14:38;;;;;;;31.85;16.00;;;;;;;-146.82;100.00;71671.09;5020337;28;20038;-77
2024/01/08 00:17:08;;;;;;;32.15;14.23;;;;;;;-146.82;100.00;71671.09;5016752;28;20037;-76
2024/01/08 00:19:34;;;;;;;38.60;15.70;;;;;;;-146.82;100.00;71671.09;5017963;28;20025;-77
2024/01/08 00:21:59;;;;;;;34.55;15.65;;;;;;;-146.82;100.00;71671.09;5014524;28;20040;-76
2024/01/08 00:24:25;;;;;;;37.88;18.35;;;;;;;-146.82;100.00;71671.09;5014855;28;20030;-76
2024/01/08 00:26:51;;;;;;;28.95;15.15;;;;;;;-146.82;100.00;71671.09;5014943;28;20029;-77
2024/01/08 00:29:17;;;;;;;30.40;14.50;;;;;;;-146.82;100.00;71671.09;5014288;28;20041;-77
2024/01/08 00:31:45;;;;;;;34.00;16.67;;;;;;;-146.82;100.00;71671.09;5014404;28;20033;-77
2024/01/08 00:34:11;;;;;;;34.45;15.85;;;;;;;-146.82;100.00;71671.09;4996761;28;20057;-77
2024/01/08 00:36:38;;;;;;;33.90;15.82;;;;;;;-146.82;100.00;71671.09;5014224;28;20088;-77
2024/01/08 00:39:11;;;;;;;36.60;15.40;;;;;;;-146.82;100.00;71671.09;5014737;28;20033;-79
2024/01/08 00:41:37;;;;;;;29.83;15.10;;;;;;;-146.82;100.00;71671.09;5014221;28;20439;-78
2024/01/08 00:44:09;;;;;;;31.95;14.90;;;;;;;-146.82;100.00;71671.09;5013060;28;20112;-77
2024/01/08 00:46:35;;;;;;;31.02;16.75;;;;;;;-146.82;100.00;71671.09;5012946;28;20451;-76
2024/01/08 00:49:01;;;;;;;33.25;15.23;;;;;;;-146.82;100.00;71671.09;5013003;28;20048;-75
2024/01/08 00:51:28;;;;;;;34.90;15.75;;;;;;;-146.82;100.00;71671.09;5012068;28;20501;-78
2024/01/08 00:53:53;;;;;;;35.95;16.42;;;;;;;-146.82;100.00;71671.09;5012534;28;20542;-77
2024/01/08 00:56:20;;;;;;;37.95;16.40;;;;;;;-146.82;100.00;71671.09;5014021;28;20033;-76
2024/01/08 00:58:46;;;;;;;34.72;14.57;;;;;;;-146.82;100.00;71671.09;5012743;28;20032;-77
2024/01/08 01:01:13;;;;;;;32.20;15.40;;;;;;;-146.82;100.00;71671.09;5012692;28;20029;-76
2024/01/08 01:03:38;;;;;;;31.38;16.65;;;;;;;-146.82;100.00;71671.09;5014589;28;20073;-77
2024/01/08 01:06:04;;;;;;;32.63;14.23;;;;;;;-146.82;100.00;71671.09;5014365;28;20084;-78
2024/01/08 01:08:30;;;;;;;31.63;14.40;;;;;;;-146.82;100.00;71671.09;5012534;28;20125;-77
2024/01/08 01:10:57;;;;;;;30.45;15.07;;;;;;;-146.82;100.00;71671.09;5016555;28;20026;-77
2024/01/08 01:13:23;;;;;;;31.73;15.77;;;;;;;-146.82;100.00;71671.09;5020715;28;20036;-76
2024/01/08 01:15:49;;;;;;;27.73;13.95;;;;;;;-146.82;100.00;71671.09;5019525;28;20033;-77
2024/01/08 01:18:15;;;;;;;33.50;16.33;;;;;;;-146.82;100.00;71671.09;5018543;28;20022;-78
2024/01/08 01:20:41;;;;;;;29.83;14.80;;;;;;;-146.82;100.00;71671.09;5014906;28;20033;-77
2024/01/08 01:23:15;;;;;;;35.53;15.80;;;;;;;-146.82;100.00;71671.09;5014687;28;20041;-78
2024/01/08 01:25:42;;;;;;;30.70;16.35;;;;;;;-146.82;100.00;71671.09;5017550;28;20026;-78
2024/01/08 01:28:07;;;;;;;29.52;14.98;;;;;;;-146.82;100.00;71671.09;5013921;28;20439;-76
2024/01/08 01:30:34;;;;;;;29.20;14.98;;;;;;;-146.82;100.00;71671.09;5013644;28;20026;-76
2024/01/08 01:33:00;;;;;;;31.38;14.60;;;;;;;-146.82;100.00;71671.09;5013025;28;20086;-77
2024/01/08 01:35:32;;;;;;;31.17;15.48;;;;;;;-146.82;100.00;71671.09;5012960;28;20022;-77
2024/01/08 01:37:58;;;;;;;31.88;14.30;;;;;;;-146.82;100.00;71671.09;5011695;28;20497;-76
2024/01/08 01:40:26;;;;;;;29.83;14.52;;;;;;;-146.82;100.00;71671.09;5011472;28;20034;-75
2024/01/08 01:42:54;;;;;;;36.58;16.83;;;;;;;-146.82;100.00;71671.09;5011110;28;20072;-76
2024/01/08 01:45:24;;;;;;;36.60;17.52;;;;;;;-146.82;100.00;71671.09;5010965;28;20467;-76
2024/01/08 01:47:54;;;;;;;34.53;15.77;;;;;;;-146.82;100.00;71671.09;5010778;28;20029;-77
2024/01/08 01:50:22;;;;;;;32.55;17.58;;;;;;;-146.82;100.00;71671.09;5012487;28;20033;-76
2024/01/08 01:52:49;;;;;;;31.75;15.70;;;;;;;-146.82;100.00;71671.09;5010515;28;20057;-77
2024/01/08 01:55:14;;;;;;;31.85;16.38;;;;;;;-146.82;100.00;71671.09;5010855;28;20032;-75
2024/01/08 01:57:44;;;;;;;32.70;14.85;;;;;;;-146.82;100.00;71671.09;4997866;28;20030;-75
2024/01/08 02:00:13;;;;;;;32.70;14.45;;;;;;;-146.82;100.00;71671.09;5014643;28;20022;-77
2024/01/08 02:02:39;;;;;;;37.13;16.95;;;;;;;-146.82;100.00;71671.09;5016302;28;20028;-76
2024/01/08 02:05:05;;;;;;;39.63;16.90;;;;;;;-146.82;100.00;71671.09;4998631;28;20030;-77
2024/01/08 02:07:31;;;;;;;38.67;16.63;;;;;;;-146.82;100.00;71671.09;5015619;28;20029;-78
2024/01/08 02:09:57;;;;;;;36.30;18.48;;;;;;;-146.82;100.00;71671.09;5016304;28;20423;-77
2024/01/08 02:12:23;;;;;;;41.00;17.77;;;;;;;-146.82;100.00;71671.09;5015770;28;20080;-77
2024/01/08 02:14:50;;;;;;;38.35;17.60;;;;;;;-146.82;100.00;71671.09;5016767;28;20025;-77
2024/01/08 02:17:16;;;;;;;30.45;14.95;;;;;;;-146.82;100.00;71671.09;5015491;28;20022;-77
2024/01/08 02:19:42;;;;;;;35.20;16.52;;;;;;;-146.82;100.00;71671.09;5015217;28;20018;-76
2024/01/08 02:22:14;;;;;;;33.35;15.93;;;;;;;-146.82;100.00;71671.09;5015863;28;20038;-76
2024/01/08 02:24:41;;;;;;;30.98;15.07;;;;;;;-146.82;100.00;71671.09;5015142;28;20029;-76
2024/01/08 02:27:06;;;;;;;31.13;15.38;;;;;;;-146.82;100.00;71671.09;5015327;28;20038;-77
2024/01/08 02:29:32;;;;;;;31.17;14.18;;;;;;;-146.82;100.00;71671.09;5015328;28;20037;-75
2024/01/08 02:31:59;;;;;;;28.65;13.75;;;;;;;-146.82;100.00;71671.09;5015138;28;20456;-78
2024/01/08 02:34:27;;;;;;;32.78;15.10;;;;;;;-146.82;100.00;71671.09;5016682;28;20424;-76
2024/01/08 02:36:52;;;;;;;30.55;13.82;;;;;;;-146.82;100.00;71671.09;5014941;28;20116;-76
2024/01/08 02:39:18;;;;;;;30.95;14.65;;;;;;;-146.82;100.00;71671.09;5016829;28;20050;-78
2024/01/08 02:41:44;;;;;;;29.42;14.88;;;;;;;-146.82;100.00;71671.09;5016329;28;20479;-77
2024/01/08 02:44:09;;;;;;;34.40;15.63;;;;;;;-146.82;100.00;71671.09;5015165;28;20032;-75
2024/01/08 02:46:36;;;;;;;34.90;16.20;;;;;;;-146.82;100.00;71671.09;5016135;28;20414;-77
2024/01/08 02:49:04;;;;;;;29.25;15.05;;;;;;;-146.82;100.00;71671.09;5016027;28;20026;-76
2024/01/08 02:51:31;;;;;;;31.08;15.88;;;;;;;-146.82;100.00;71671.09;5015774;28;20080;-78
2024/01/08 02:53:58;;;;;;;32.70;15.73;;;;;;;-146.82;100.00;71671.09;5017364;28;20032;-75
2024/01/08 02:56:25;;;;;;;32.75;15.57;;;;;;;-146.82;100.00;71671.09;5016639;28;20032;-77
2024/01/08 02:58:51;;;;;;;30.63;14.68;;;;;;;-146.82;100.00;71671.09;5016149;28;20037;-77
2024/01/08 03:01:17;;;;;;;34.70;16.05;;;;;;;-146.82;100.00;71671.09;5016281;28;20427;-77
2024/01/08 03:03:43;;;;;;;34.00;17.20;;;;;;;-146.82;100.00;71671.09;5016132;28;20053;-78
2024/01/08 03:06:09;;;;;;;36.22;16.58;;;;;;;-146.82;100.00;71671.09;5014762;28;20066;-77
2024/01/08 03:08:35;;;;;;;41.88;16.98;;;;;;;-146.82;100.00;71671.09;5015724;28;20033;-76
2024/01/08 03:11:02;;;;;;;36.25;16.13;;;;;;;-146.82;100.00;71671.09;5014980;28;20501;-77
2024/01/08 03:13:29;;;;;;;35.33;16.67;;;;;;;-146.82;100.00;71671.09;5014522;28;20029;-75
2024/01/08 03:15:56;;;;;;;36.03;17.33;;;;;;;-146.82;100.00;71671.09;5015443;28;20088;-76
2024/01/08 03:18:21;;;;;;;36.15;16.13;;;;;;;-146.82;100.00;71671.09;5014699;28;20026;-78
2024/01/08 03:20:46;;;;;;;35.38;15.60;;;;;;;-146.82;100.00;71671.09;5014025;28;20490;-77
2024/01/08 03:23:13;;;;;;;40.10;17.45;;;;;;;-146.82;100.00;71671.09;5015606;28;20022;-77
2024/01/08 03:25:41;;;;;;;39.42;16.90;;;;;;;-146.82;100.00;71671.09;5014050;28;20026;-76
2024/01/08 03:28:06;;;;;;;39.75;17.15;;;;;;;-146.82;100.00;71671.09;5013909;28;20471;-76
2024/01/08 03:30:34;;;;;;;35.90;16.92;;;;;;;-146.82;100.00;71671.09;5013824;28;20037;-75
2024/01/08 03:33:00;;;;;;;35.58;16.30;;;;;;;-146.82;100.00;71671.09;5013472;28;20034;-78
2024/01/08 03:35:26;;;;;;;40.28;16.83;;;;;;;-146.82;100.00;71671.09;5015516;28;20026;-76
2024/01/08 03:37:52;;;;;;;38.85;16.65;;;;;;;-146.82;100.00;71671.09;5015168;28;20037;-75
2024/01/08 03:40:20;;;;;;;40.60;16.80;;;;;;;-146.82;100.00;71671.09;5014951;28;20037;-76
2024/01/08 03:42:47;;;;;;;34.08;16.90;;;;;;;-146.82;100.00;71671.09;5014920;28;20030;-78
2024/01/08 03:45:12;;;;;;;39.40;17.38;;;;;;;-146.82;100.00;71671.09;5013961;28;20044;-77
2024/01/08 03:47:39;;;;;;;44.17;19.50;;;;;;;-146.82;100.00;71671.09;5013945;28;20038;-78
2024/01/08 03:50:06;;;;;;;35.80;17.88;;;;;;;-146.82;100.00;71671.09;5015386;28;20018;-77
2024/01/08 03:52:31;;;;;;;35.08;18.65;;;;;;;-146.82;100.00;71671.09;5015036;28;20108;-76
2024/01/08 03:54:59;;;;;;;37.90;19.42;;;;;;;-146.82;100.00;71671.09;5015001;28;20380;-77
2024/01/08 03:57:25;;;;;;;34.65;18.92;;;;;;;-146.82;100.00;71671.09;5014281;28;20033;-77
2024/01/08 03:59:51;;;;;;;41.72;17.50;;;;;;;-146.82;100.00;71671.09;5014923;28;20025;-77
2024/01/08 04:02:16;;;;;;;34.20;16.13;;;;;;;-146.82;100.00;71671.09;5014910;28;20100;-77
2024/01/08 04:04:42;;;;;;;41.15;16.38;;;;;;;-146.82;100.00;71671.09;5014713;28;20031;-78
2024/01/08 04:07:09;;;;;;;35.30;15.60;;;;;;;-146.82;100.00;71671.09;5014969;28;20473;-76
2024/01/08 04:09:35;;;;;;;35.30;16.73;;;;;;;-146.82;100.00;71671.09;5013247;28;20494;-77
2024/01/08 04:12:04;;;;;;;39.72;17.17;;;;;;;-146.82;100.00;71671.09;5014479;28;20135;-77
2024/01/08 04:14:30;;;;;;;33.50;15.90;;;;;;;-146.82;100.00;71671.09;5014701;28;20030;-79
2024/01/08 04:16:56;;;;;;;37.05;17.55;;;;;;;-146.82;100.00;71671.09;5014837;28;20033;-77
2024/01/08 04:19:22;;;;;;;36.95;18.20;;;;;;;-146.82;100.00;71671.09;5013932;28;20026;-76
2024/01/08 04:21:49;;;;;;;33.33;16.00;;;;;;;-146.82;100.00;71671.09;5014454;28;20114;-77
2024/01/08 04:24:15;;;;;;;38.38;17.88;;;;;;;-146.82;100.00;71671.09;5014278;28;20033;-78
2024/01/08 04:26:41;;;;;;;38.80;17.00;;;;;;;-146.82;100.00;71671.09;5015125;28;20056;-78
2024/01/08 04:29:08;;;;;;;41.05;17.77;;;;;;;-146.82;100.00;71671.09;5014402;28;20116;-77
2024/01/08 04:31:33;;;;;;;35.83;16.20;;;;;;;-146.82;100.00;71671.09;5014445;28;20352;-77
2024/01/08 04:33:59;;;;;;;28.63;14.55;;;;;;;-146.82;100.00;71671.09;5014663;28;20036;-77
2024/01/08 04:36:24;;;;;;;34.92;16.27;;;;;;;-146.82;100.00;71671.09;5018168;28;20021;-76
2024/01/08 04:38:50;;;;;;;34.20;16.25;;;;;;;-146.82;100.00;71671.09;5018245;28;20038;-78
2024/01/08 04:41:19;;;;;;;31.58;15.55;;;;;;;-146.82;100.00;71671.09;5017679;28;20554;-77
2024/01/08 04:43:45;;;;;;;35.97;16.65;;;;;;;-146.82;100.00;71671.09;5015225;28;20091;-75
2024/01/08 04:46:11;;;;;;;38.35;15.98;;;;;;;-146.82;100.00;71671.09;5014948;28;20113;-77
2024/01/08 04:48:38;;;;;;;35.03;16.35;;;;;;;-146.82;100.00;71671.09;5014547;28;20030;-77
2024/01/08 04:51:04;;;;;;;36.67;16.55;;;;;;;-146.82;100.00;71671.09;5013705;28;20060;-77
2024/01/08 04:53:33;;;;;;;33.97;15.73;;;;;;;-146.82;100.00;71671.09;5012727;28;20038;-76
2024/01/08 04:55:58;;;;;;;43.10;15.48;;;;;;;-146.82;100.00;71671.09;5014042;28;20034;-78
2024/01/08 04:58:24;;;;;;;34.30;15.70;;;;;;;-146.82;100.00;71671.09;5014115;28;20384;-78
2024/01/08 05:00:49;;;;;;;36.88;15.43;;;;;;;-146.82;100.00;71671.09;5013819;28;20523;-76
2024/01/08 05:03:15;;;;;;;36.15;16.67;;;;;;;-146.82;100.00;71671.09;5013771;28;20487;-77
2024/01/08 05:05:42;;;;;;;37.08;16.63;;;;;;;-146.82;100.00;71671.09;5013759;28;20037;-76
2024/01/08 05:08:07;;;;;;;38.05;16.38;;;;;;;-146.82;100.00;71671.09;5014475;28;20030;-79
2024/01/08 05:10:32;;;;;;;37.55;17.30;;;;;;;-146.82;100.00;71671.09;5014949;28;20025;-76
2024/01/08 05:12:58;;;;;;;35.05;16.17;;;;;;;-146.82;100.00;71671.09;5014665;28;20022;-76
2024/01/08 05:15:23;;;;;;;36.25;16.85;;;;;;;-146.82;100.00;71671.09;5014405;28;20113;-77
2024/01/08 05:17:50;;;;;;;38.00;17.75;;;;;;;-146.82;100.00;71671.09;5016939;28;20025;-78
2024/01/08 05:20:15;;;;;;;35.03;16.90;;;;;;;-146.82;100.00;71671.09;5014285;28;20034;-76
2024/01/08 05:22:41;;;;;;;37.00;17.17;;;;;;;-146.82;100.00;71671.09;5015731;28;20033;-77
2024/01/08 05:25:10;;;;;;;34.20;15.60;;;;;;;-146.82;100.00;71671.09;5014241;28;20424;-75
2024/01/08 05:27:35;;;;;;;38.15;18.58;;;;;;;-146.82;100.00;71671.09;5014154;28;20169;-75
2024/01/08 05:30:01;;;;;;;43.92;18.02;;;;;;;-146.82;100.00;71671.09;5013531;28;20478;-77
2024/01/08 05:32:28;;;;;;;37.65;17.10;;;;;;;-146.82;100.00;71671.09;5019414;28;20537;-75
2024/01/08 05:34:54;;;;;;;41.88;16.83;;;;;;;-146.82;100.00;71671.09;5019172;28;20471;-77
2024/01/08 05:37:20;;;;;;;35.50;16.92;;;;;;;-146.82;100.00;71671.09;5017755;28;20030;-77
2024/01/08 05:39:45;;;;;;;37.95;16.70;;;;;;;-146.82;100.00;71671.09;5016872;28;20041;-77
2024/01/08 05:42:11;;;;;;;40.13;18.08;;;;;;;-146.82;100.00;71671.09;5017482;28;20028;-76
2024/01/08 05:44:37;;;;;;;37.85;17.42;;;;;;;-146.82;100.00;71671.09;5012614;28;20069;-77
2024/01/08 05:47:07;;;;;;;33.28;16.17;;;;;;;-146.82;100.00;71671.09;4996629;28;20041;-77
2024/01/08 05:49:33;;;;;;;35.10;16.30;;;;;;;-146.82;100.00;71671.09;4997711;28;20023;-77
2024/01/08 05:52:00;;;;;;;34.22;17.05;;;;;;;-146.82;100.00;71671.09;4996851;28;20078;-76
2024/01/08 05:54:26;;;;;;;42.10;18.73;;;;;;;-146.82;100.00;71671.09;4997580;28;20041;-77
2024/01/08 05:56:52;;;;;;;42.65;17.23;;;;;;;-146.82;100.00;71671.09;4997406;28;20050;-76
2024/01/08 05:59:18;;;;;;;35.97;17.13;;;;;;;-146.82;100.00;71671.09;4997453;28;20375;-76
2024/01/08 06:01:43;;;;;;;36.35;16.55;;;;;;;-146.82;100.00;71671.09;4995692;28;20053;-77
2024/01/08 06:04:10;;;;;;;41.25;16.08;;;;;;;-146.82;100.00;71671.09;4996120;28;20464;-78
2024/01/08 06:06:35;;;;;;;32.38;16.05;;;;;;;-146.82;100.00;71671.09;5004651;28;20041;-76
2024/01/08 06:09:00;;;;;;;40.10;15.98;;;;;;;-146.82;100.00;71671.09;5017033;28;20018;-77
2024/01/08 06:11:26;;;;;;;46.47;16.65;;;;;;;-146.82;100.00;71671.09;5016992;28;20541;-76
2024/01/08 06:13:52;;;;;;;40.67;16.25;;;;;;;-146.82;100.00;71671.09;5016087;28;20375;-77
2024/01/08 06:16:17;;;;;;;35.72;16.05;;;;;;;-146.82;100.00;71671.09;5017337;28;20041;-77
2024/01/08 06:18:43;;;;;;;30.75;15.77;;;;;;;-146.82;100.00;71671.09;5017318;28;20101;-80
2024/01/08 06:21:08;;;;;;;39.00;16.70;;;;;;;-146.82;100.00;71671.09;5017726;28;20036;-80
2024/01/08 06:23:35;;;;;;;36.70;16.73;;;;;;;-146.82;100.00;71671.09;5021913;28;20450;-78
2024/01/08 06:26:04;;;;;;;36.53;16.50;;;;;;;-146.82;100.00;71671.09;5023433;28;20033;-79
2024/01/08 06:28:30;;;;;;;33.67;15.52;;;;;;;-146.82;100.00;71671.09;5021824;28;20033;-78
2024/01/08 06:30:56;;;;;;;36.45;15.32;;;;;;;-146.82;100.00;71671.09;5020955;28;20022;-79
2024/01/08 06:33:21;;;;;;;37.92;16.73;;;;;;;-146.82;100.00;71671.09;5016120;28;20585;-80
2024/01/08 06:35:47;;;;;;;36.58;16.08;;;;;;;-146.82;100.00;71671.09;5016363;28;20109;-80
2024/01/08 06:38:14;;;;;;;37.40;15.23;;;;;;;-146.82;100.00;71671.09;5016416;28;20383;-79
2024/01/08 06:40:40;;;;;;;38.28;16.67;;;;;;;-146.82;100.00;71671.09;5015065;28;20036;-80
2024/01/08 06:43:05;;;;;;;34.28;15.38;;;;;;;-146.82;100.00;71671.09;5008494;28;20033;-80
2024/01/08 06:45:32;;;;;;;40.17;18.80;;;;;;;-146.82;100.00;71671.09;5015052;28;20505;-79
2024/01/08 06:47:57;;;;;;;42.05;16.80;;;;;;;-146.82;100.00;71671.09;5016288;28;20505;-80
2024/01/08 06:50:24;;;;;;;38.92;16.20;;;;;;;-146.82;100.00;71671.09;5014906;28;20029;-80
2024/01/08 06:52:50;;;;;;;35.65;14.98;;;;;;;-146.82;100.00;71671.09;4998494;28;20054;-79
2024/01/08 06:55:17;;;;;;;31.13;15.07;;;;;;;-146.82;100.00;71671.09;5016349;28;20123;-80
2024/01/08 06:57:42;;;;;;;29.92;16.20;;;;;;;-146.82;100.00;71671.09;5012593;28;20045;-79
2024/01/08 07:00:12;;;;;;;34.22;15.68;;;;;;;-146.82;100.00;71671.09;5015573;28;20029;-80
2024/01/08 07:02:38;;;;;;;38.58;15.55;;;;;;;-146.82;100.00;71671.09;5015398;28;20037;-79
2024/01/08 07:05:04;;;;;;;36.60;17.60;;;;;;;-146.82;100.00;71671.09;4995780;28;20423;-79
2024/01/08 07:07:29;;;;;;;32.97;16.27;;;;;;;-146.82;100.00;71671.09;5012553;28;20527;-79
2024/01/08 07:09:55;;;;;;;37.60;17.00;;;;;;;-146.82;100.00;71671.09;5012590;28;20025;-81
2024/01/08 07:12:20;;;;;;;31.08;15.93;;;;;;;-146.82;100.00;71671.09;5014037;28;20073;-78
2024/01/08 07:14:50;;;;;;;37.28;15.73;;;;;;;-146.82;100.00;71671.09;5013789;28;20341;-78
2024/01/08 07:17:16;;;;;;;39.72;16.35;;;;;;;-146.82;100.00;71671.09;5013367;28;20396;-79
2024/01/08 07:19:41;;;;;;;40.58;16.20;;;;;;;-146.82;100.00;71671.09;5013370;28;20076;-78
2024/01/08 07:22:07;;;;;;;32.35;14.35;;;;;;;-146.82;100.00;71671.09;5014551;28;20160;-80
2024/01/08 07:24:32;;;;;;;32.08;14.85;;;;;;;-146.82;100.00;71671.09;5012597;28;20091;-79
2024/01/08 07:26:58;;;;;;;33.85;16.38;;;;;;;-146.82;100.00;71671.09;5013637;28;20145;-80
2024/01/08 07:29:23;;;;;;;36.65;16.00;;;;;;;-146.82;100.00;71671.09;5015278;28;20036;-81
2024/01/08 07:31:50;;;;;;;34.78;15.90;;;;;;;-146.82;100.00;71671.09;5015366;28;20119;-79
2024/01/08 07:34:15;;;;;;;37.42;17.45;;;;;;;-146.82;100.00;71671.09;5014016;28;20040;-80
2024/01/08 07:36:40;;;;;;;33.97;16.15;;;;;;;-146.82;100.00;71671.09;5015126;28;20025;-81
2024/01/08 07:39:06;;;;;;;34.13;15.25;;;;;;;-146.82;100.00;71671.09;5015412;28;20025;-80
2024/01/08 07:41:31;;;;;;;36.38;15.93;;;;;;;-146.82;100.00;71671.09;5015170;28;20041;-81
2024/01/08 07:43:57;;;;;;;32.00;15.30;;;;;;;-146.82;100.00;71671.09;5013846;28;20026;-82
2024/01/08 07:46:22;;;;;;;38.53;15.95;;;;;;;-146.82;100.00;71671.09;5014967;28;20030;-80
2024/01/08 07:48:49;;;;;;;46.28;17.90;;;;;;;-146.82;100.00;71671.09;5015568;28;20034;-82
2024/01/08 07:51:19;;;;;;;38.20;16.33;;;;;;;-146.82;100.00;71671.09;5013504;28;20073;-80
2024/01/08 07:53:45;;;;;;;34.53;15.38;;;;;;;-146.82;100.00;71671.09;5014040;28;20109;-81
2024/01/08 07:56:11;;;;;;;39.58;17.48;;;;;;;-146.82;100.00;71671.09;5016651;28;20084;-80
2024/01/08 07:58:36;;;;;;;42.30;17.20;;;;;;;-146.82;100.00;71671.09;4998516;28;20037;-82
2024/01/08 08:01:02;;;;;;;33.78;15.68;;;;;;;-146.82;100.00;71671.09;5014756;28;20034;-80
2024/01/08 08:03:27;;;;;;;36.55;16.15;;;;;;;-146.82;100.00;71671.09;5015290;28;20108;-79
2024/01/08 08:05:53;;;;;;;34.10;14.35;;;;;;;-146.82;100.00;71671.09;5014742;28;20383;-82
2024/01/08 08:08:18;;;;;;;30.95;14.93;;;;;;;-146.82;100.00;71671.09;5014841;28;20088;-80
2024/01/08 08:10:44;;;;;;;33.85;15.90;;;;;;;-146.82;100.00;71671.09;5013431;28;20399;-80
2024/01/08 08:13:09;;;;;;;35.17;16.75;;;;;;;-146.82;100.00;71671.09;5014620;28;20030;-80
2024/01/08 08:15:34;;;;;;;30.25;15.63;;;;;;;-146.82;100.00;71671.09;5014773;28;20030;-80
2024/01/08 08:18:00;;;;;;;33.90;16.75;;;;;;;-146.82;100.00;71671.09;5014985;28;20030;-80
2024/01/08 08:20:25;;;;;;;35.17;16.85;;;;;;;-146.82;100.00;71671.09;5016711;28;20022;-80
2024/01/08 08:22:51;;;;;;;37.67;15.88;;;;;;;-146.82;100.00;71671.09;5012781;28;20029;-80
2024/01/08 08:25:17;;;;;;;38.30;17.00;;;;;;;-146.82;100.00;71671.09;5026579;28;20017;-80
2024/01/08 08:27:42;;;;;;;39.45;17.77;;;;;;;-146.82;100.00;71671.09;5026014;28;20049;-81
2024/01/08 08:30:11;;;;;;;44.17;18.02;;;;;;;-146.82;100.00;71671.09;5022225;28;20017;-80
2024/01/08 08:32:39;;;;;;;42.55;18.13;;;;;;;-146.82;100.00;71671.09;5003580;28;20097;-80
2024/01/08 08:35:05;;;;;;;42.10;18.77;;;;;;;-146.82;100.00;71671.09;5018636;28;20022;-82
2024/01/08 08:37:31;;;;;;;40.40;17.05;;;;;;;-146.82;100.00;71671.09;5018738;28;20509;-81
2024/01/08 08:39:56;;;;;;;35.42;16.73;;;;;;;-146.82;100.00;71671.09;5016338;28;20026;-80
2024/01/08 08:42:22;;;;;;;34.25;16.30;;;;;;;-146.82;100.00;71671.09;5014642;28;20018;-81
2024/01/08 08:44:47;;;;;;;35.03;15.57;;;;;;;-146.82;100.00;71671.09;5014243;28;20022;-79
2024/01/08 08:47:13;;;;;;;43.97;17.75;;;;;;;-146.82;100.00;71671.09;5014331;28;20438;-82
2024/01/08 08:49:38;;;;;;;34.88;16.70;;;;;;;-146.82;100.00;71671.09;5012710;28;20030;-80
2024/01/08 08:52:04;;;;;;;32.10;15.93;;;;;;;-146.82;100.00;71671.09;5012349;28;20190;-80
2024/01/08 08:54:29;;;;;;;34.97;16.80;;;;;;;-146.82;100.00;71671.09;5013962;28;20045;-79
2024/01/08 08:56:55;;;;;;;34.85;15.48;;;;;;;-146.82;100.00;71671.09;5012837;28;20026;-79
2024/01/08 08:59:20;;;;;;;30.70;16.35;;;;;;;-146.82;100.00;71671.09;5013767;28;20028;-81
2024/01/08 09:01:49;;;;;;;38.50;17.27;;;;;;;-146.82;100.00;71671.09;5013956;28;20107;-81
2024/01/08 09:04:15;;;;;;;30.02;15.30;;;;;;;-146.82;100.00;71671.09;5012389;28;20029;-80
2024/01/08 09:06:40;;;;;;;35.97;16.65;;;;;;;-146.82;100.00;71671.09;5014007;28;20029;-81
2024/01/08 09:09:08;;;;;;;31.05;16.92;;;;;;;-146.82;100.00;71671.09;5014002;28;20030;-79
2024/01/08 09:11:35;;;;;;;41.08;19.00;;;;;;;-146.82;100.00;71671.09;5013881;28;20018;-80
2024/01/08 09:14:01;;;;;;;30.13;16.95;;;;;;;-146.82;100.00;71671.09;5013591;28;20091;-78
2024/01/08 09:16:27;;;;;;;34.97;16.77;;;;;;;-146.82;100.00;71671.09;5013752;28;20029;-81
2024/01/08 09:18:53;;;;;;;36.55;17.23;;;;;;;-146.82;100.00;71671.09;5014335;28;20033;-78
2024/01/08 09:21:18;;;;;;;36.40;17.80;;;;;;;-146.82;100.00;71671.09;5013641;28;20034;-79
2024/01/08 09:23:43;;;;;;;37.67;16.63;;;;;;;-146.82;100.00;71671.09;5013593;28;20026;-77
2024/01/08 09:26:10;;;;;;;37.90;17.35;;;;;;;-146.82;100.00;71671.09;5012332;28;20080;-79
2024/01/08 09:28:36;;;;;;;41.00;19.60;;;;;;;-146.82;100.00;71671.09;5013882;28;20026;-79
2024/01/08 09:31:03;;;;;;;30.30;15.57;;;;;;;-146.82;100.00;71671.09;5014889;28;20025;-79
2024/01/08 09:33:28;;;;;;;36.85;16.58;;;;;;;-146.82;100.00;71671.09;5029754;28;20029;-81
2024/01/08 09:35:54;;;;;;;35.42;18.52;;;;;;;-146.82;100.00;71671.09;5032499;28;20022;-80
2024/01/08 09:38:19;;;;;;;38.53;18.92;;;;;;;-146.82;100.00;71671.09;5032748;28;20037;-82
2024/01/08 09:40:47;;;;;;;38.63;18.10;;;;;;;-146.82;100.00;71671.09;5025199;28;20030;-81
2024/01/08 09:43:15;;;;;;;40.40;18.63;;;;;;;-146.82;100.00;71671.09;5013423;28;20087;-80
2024/01/08 09:46:01;;;;;;;40.15;17.70;;;;;;;-146.82;100.00;71671.09;5015177;28;20475;-80
2024/01/08 09:48:27;;;;;;;39.38;18.00;;;;;;;-146.82;100.00;71671.09;5013341;28;20030;-80
2024/01/08 09:50:53;;;;;;;42.25;18.60;;;;;;;-146.82;100.00;71671.09;5013254;28;20014;-78
2024/01/08 09:53:19;;;;;;;36.22;18.83;;;;;;;-146.82;100.00;71671.09;4995663;28;20079;-82
2024/01/08 09:55:45;;;;;;;39.30;19.23;;;;;;;-146.82;100.00;71671.09;5013538;28;20025;-79
2024/01/08 09:58:11;;;;;;;32.63;16.60;;;;;;;-146.82;100.00;71671.09;4995702;28;20026;-79
2024/01/08 10:00:36;;;;;;;41.17;18.80;;;;;;;-146.82;100.00;71671.09;5013606;28;20121;-79
2024/01/08 10:03:02;;;;;;;36.38;17.58;;;;;;;-146.82;100.00;71671.09;4995417;28;20478;-79
2024/01/08 10:05:28;;;;;;;41.90;20.02;;;;;;;-146.82;100.00;71671.09;5013198;28;20048;-80
2024/01/08 10:07:54;;;;;;;43.30;20.13;;;;;;;-146.82;100.00;71671.09;5013068;28;20033;-79
2024/01/08 10:10:20;;;;;;;39.47;18.67;;;;;;;-146.82;100.00;71671.09;5013186;28;20024;-79
2024/01/08 10:12:49;;;;;;;39.67;18.00;;;;;;;-146.82;100.00;71671.09;5013280;28;20053;-79
2024/01/08 10:15:18;;;;;;;37.35;18.05;;;;;;;-146.82;100.00;71671.09;5013098;28;20025;-81
2024/01/08 10:17:48;;;;;;;33.63;17.25;;;;;;;-146.82;100.00;71671.09;5015526;28;20064;-79
2024/01/08 10:20:13;;;;;;;35.83;15.88;;;;;;;-146.82;100.00;71671.09;5016817;28;20105;-79
2024/01/08 10:22:39;;;;;;;42.72;18.52;;;;;;;-146.82;100.00;71671.09;5016505;28;20053;-81
2024/01/08 10:25:06;;;;;;;33.97;17.30;;;;;;;-146.82;100.00;71671.09;5016951;28;20030;-81
2024/01/08 10:27:31;;;;;;;35.35;17.13;;;;;;;-146.82;100.00;71671.09;5017116;28;20491;-78
2024/01/08 10:29:57;;;;;;;36.25;17.15;;;;;;;-146.82;100.00;71671.09;5016822;28;20050;-81
2024/01/08 10:32:23;;;;;;;42.95;19.27;;;;;;;-146.82;100.00;71671.09;5015362;28;20115;-80
2024/01/08 10:34:49;;;;;;;40.38;18.27;;;;;;;-146.82;100.00;71671.09;5016518;28;20033;-81
2024/01/08 10:37:15;;;;;;;35.17;17.23;;;;;;;-146.82;100.00;71671.09;5016353;28;20022;-79
2024/01/08 10:39:42;;;;;;;41.92;18.20;;;;;;;-146.82;100.00;71671.09;5015205;28;20033;-80
2024/01/08 10:42:08;;;;;;;39.40;16.67;;;;;;;-146.82;100.00;71671.09;5016474;28;20050;-81
2024/01/08 10:44:34;;;;;;;40.05;18.15;;;;;;;-146.82;100.00;71671.09;5016318;28;20449;-79
2024/01/08 10:47:11;;;;;;;47.30;19.25;;;;;;;-146.82;100.00;71671.09;5016152;28;20108;-80
2024/01/08 10:49:36;;;;;;;34.55;17.65;;;;;;;-146.82;100.00;71671.09;5016050;28;20077;-81